sensor_id;sensor_type;location;lat;lon;timestamp;temperature;humidity
24412;DHT22;12544;46.760;15.942;2023-08-20T00:01:21;21.40;99.90
24412;DHT22;12544;46.760;15.942;2023-08-20T00:03:48;21.20;99.90
24412;DHT22;12544;46.760;15.942;2023-08-20T00:06:14;21.10;99.90
24412;DHT22;12544;46.760;15.942;2023-08-20T00:08:39;21.00;99.90
24412;DHT22;12544;46.760;15.942;2023-08-20T00:11:05;21.00;99.90
24412;DHT22;12544;46.760;15.942;2023-08-20T00:13:31;20.90;99.90
24412;DHT22;12544;46.760;15.942;2023-08-20T00:15:57;20.80;99.90
24412;DHT22;12544;46.760;15.942;2023-08-20T00:18:22;20.70;99.90
24412;DHT22;12544;46.760;15.942;2023-08-20T00:20:48;20.60;99.90
24412;DHT22;12544;46.760;15.942;2023-08-20T00:23:14;20.60;99.90
24412;DHT22;12544;46.760;15.942;2023-08-20T00:25:40;20.60;99.90
24412;DHT22;12544;46.760;15.942;2023-08-20T00:28:06;20.60;99.90
24412;DHT22;12544;46.760;15.942;2023-08-20T00:33:53;20.60;99.90
24412;DHT22;12544;46.760;15.942;2023-08-20T00:36:19;20.60;99.90
24412;DHT22;12544;46.760;15.942;2023-08-20T00:38:45;20.60;99.90
24412;DHT22;12544;46.760;15.942;2023-08-20T00:41:10;20.60;99.90
24412;DHT22;12544;46.760;15.942;2023-08-20T00:43:36;20.60;99.90
24412;DHT22;12544;46.760;15.942;2023-08-20T00:49:23;20.50;99.90
24412;DHT22;12544;46.760;15.942;2023-08-20T00:51:50;20.40;99.90
24412;DHT22;12544;46.760;15.942;2023-08-20T00:54:16;20.40;99.90
24412;DHT22;12544;46.760;15.942;2023-08-20T00:56:42;20.40;99.90
24412;DHT22;12544;46.760;15.942;2023-08-20T00:59:08;20.50;99.90
24412;DHT22;12544;46.760;15.942;2023-08-20T01:01:34;20.50;99.90
24412;DHT22;12544;46.760;15.942;2023-08-20T01:03:59;20.60;99.90
24412;DHT22;12544;46.760;15.942;2023-08-20T01:15:24;20.60;99.90
24412;DHT22;12544;46.760;15.942;2023-08-20T01:17:50;20.60;99.90
24412;DHT22;12544;46.760;15.942;2023-08-20T01:20:16;20.60;99.90
24412;DHT22;12544;46.760;15.942;2023-08-20T01:30:49;20.40;99.90
24412;DHT22;12544;46.760;15.942;2023-08-20T01:33:15;20.40;99.90
24412;DHT22;12544;46.760;15.942;2023-08-20T01:35:41;20.30;99.90
24412;DHT22;12544;46.760;15.942;2023-08-20T01:38:07;20.20;99.90
24412;DHT22;12544;46.760;15.942;2023-08-20T01:40:33;20.20;99.90
24412;DHT22;12544;46.760;15.942;2023-08-20T01:42:59;20.10;99.90
24412;DHT22;12544;46.760;15.942;2023-08-20T01:45:24;20.10;99.90
24412;DHT22;12544;46.760;15.942;2023-08-20T01:47:51;20.10;99.90
24412;DHT22;12544;46.760;15.942;2023-08-20T01:50:17;20.10;99.90
24412;DHT22;12544;46.760;15.942;2023-08-20T01:52:43;20.10;99.90
24412;DHT22;12544;46.760;15.942;2023-08-20T01:55:08;20.00;99.90
24412;DHT22;12544;46.760;15.942;2023-08-20T01:57:34;20.00;99.90
24412;DHT22;12544;46.760;15.942;2023-08-20T02:00:00;20.00;99.90
24412;DHT22;12544;46.760;15.942;2023-08-20T02:02:25;20.00;99.90
24412;DHT22;12544;46.760;15.942;2023-08-20T02:08:13;20.00;99.90
24412;DHT22;12544;46.760;15.942;2023-08-20T02:10:39;19.90;99.90
24412;DHT22;12544;46.760;15.942;2023-08-20T02:13:04;19.90;99.90
24412;DHT22;12544;46.760;15.942;2023-08-20T02:15:30;19.90;99.90
24412;DHT22;12544;46.760;15.942;2023-08-20T02:17:56;19.90;99.90
24412;DHT22;12544;46.760;15.942;2023-08-20T02:20:22;19.90;99.90
24412;DHT22;12544;46.760;15.942;2023-08-20T02:22:48;20.00;99.90
24412;DHT22;12544;46.760;15.942;2023-08-20T02:25:13;20.00;99.90
24412;DHT22;12544;46.760;15.942;2023-08-20T02:27:39;20.10;99.90
24412;DHT22;12544;46.760;15.942;2023-08-20T02:30:05;20.10;99.90
24412;DHT22;12544;46.760;15.942;2023-08-20T02:32:31;20.00;99.90
24412;DHT22;12544;46.760;15.942;2023-08-20T02:34:58;20.10;99.90
24412;DHT22;12544;46.760;15.942;2023-08-20T02:37:24;20.10;99.90
24412;DHT22;12544;46.760;15.942;2023-08-20T02:39:49;20.00;99.90
24412;DHT22;12544;46.760;15.942;2023-08-20T02:42:15;20.00;99.90
24412;DHT22;12544;46.760;15.942;2023-08-20T02:44:40;19.90;99.90
24412;DHT22;12544;46.760;15.942;2023-08-20T02:47:06;19.80;99.90
24412;DHT22;12544;46.760;15.942;2023-08-20T02:49:32;19.70;99.90
24412;DHT22;12544;46.760;15.942;2023-08-20T02:51:57;19.70;99.90
24412;DHT22;12544;46.760;15.942;2023-08-20T02:54:23;19.60;99.90
24412;DHT22;12544;46.760;15.942;2023-08-20T02:56:51;19.60;99.90
24412;DHT22;12544;46.760;15.942;2023-08-20T03:02:38;19.60;99.90
24412;DHT22;12544;46.760;15.942;2023-08-20T03:05:05;19.60;99.90
24412;DHT22;12544;46.760;15.942;2023-08-20T03:07:31;19.50;99.90
24412;DHT22;12544;46.760;15.942;2023-08-20T03:09:57;19.50;99.90
24412;DHT22;12544;46.760;15.942;2023-08-20T03:12:23;19.50;99.90
24412;DHT22;12544;46.760;15.942;2023-08-20T03:14:48;19.50;99.90
24412;DHT22;12544;46.760;15.942;2023-08-20T03:17:14;19.50;99.90
24412;DHT22;12544;46.760;15.942;2023-08-20T03:19:54;19.50;99.90
24412;DHT22;12544;46.760;15.942;2023-08-20T03:22:20;19.40;99.90
24412;DHT22;12544;46.760;15.942;2023-08-20T03:24:45;19.40;99.90
24412;DHT22;12544;46.760;15.942;2023-08-20T03:27:11;19.30;99.90
24412;DHT22;12544;46.760;15.942;2023-08-20T03:29:37;19.30;99.90
24412;DHT22;12544;46.760;15.942;2023-08-20T03:35:24;19.40;99.90
24412;DHT22;12544;46.760;15.942;2023-08-20T03:37:49;19.40;99.90
24412;DHT22;12544;46.760;15.942;2023-08-20T03:40:15;19.30;99.90
24412;DHT22;12544;46.760;15.942;2023-08-20T03:42:41;19.30;99.90
24412;DHT22;12544;46.760;15.942;2023-08-20T03:45:06;19.20;99.90
24412;DHT22;12544;46.760;15.942;2023-08-20T03:47:32;19.30;99.90
24412;DHT22;12544;46.760;15.942;2023-08-20T03:49:58;19.40;99.90
24412;DHT22;12544;46.760;15.942;2023-08-20T03:52:23;19.50;99.90
24412;DHT22;12544;46.760;15.942;2023-08-20T03:58:10;19.40;99.90
24412;DHT22;12544;46.760;15.942;2023-08-20T04:00:36;19.40;99.90
24412;DHT22;12544;46.760;15.942;2023-08-20T04:03:02;19.30;99.90
24412;DHT22;12544;46.760;15.942;2023-08-20T04:05:28;19.30;99.90
24412;DHT22;12544;46.760;15.942;2023-08-20T04:07:53;19.30;99.90
24412;DHT22;12544;46.760;15.942;2023-08-20T04:10:19;19.30;99.90
24412;DHT22;12544;46.760;15.942;2023-08-20T04:12:44;19.40;99.90
24412;DHT22;12544;46.760;15.942;2023-08-20T04:15:10;19.40;99.90
24412;DHT22;12544;46.760;15.942;2023-08-20T04:17:36;19.40;99.90
24412;DHT22;12544;46.760;15.942;2023-08-20T04:20:01;19.50;99.90
24412;DHT22;12544;46.760;15.942;2023-08-20T04:22:27;19.30;99.90
24412;DHT22;12544;46.760;15.942;2023-08-20T04:24:55;19.20;99.90
24412;DHT22;12544;46.760;15.942;2023-08-20T04:27:21;19.10;99.90
24412;DHT22;12544;46.760;15.942;2023-08-20T04:29:46;19.00;99.90
24412;DHT22;12544;46.760;15.942;2023-08-20T04:32:12;18.80;99.90
24412;DHT22;12544;46.760;15.942;2023-08-20T04:34:38;18.80;99.90
24412;DHT22;12544;46.760;15.942;2023-08-20T04:37:03;18.80;99.90
24412;DHT22;12544;46.760;15.942;2023-08-20T04:39:29;18.70;99.90
24412;DHT22;12544;46.760;15.942;2023-08-20T04:41:54;18.60;99.90
24412;DHT22;12544;46.760;15.942;2023-08-20T04:44:22;18.50;99.90
24412;DHT22;12544;46.760;15.942;2023-08-20T04:46:48;18.50;99.90
24412;DHT22;12544;46.760;15.942;2023-08-20T04:49:14;18.50;99.90
24412;DHT22;12544;46.760;15.942;2023-08-20T04:51:39;18.50;99.90
24412;DHT22;12544;46.760;15.942;2023-08-20T04:54:05;18.70;99.90
24412;DHT22;12544;46.760;15.942;2023-08-20T04:56:30;18.90;99.90
24412;DHT22;12544;46.760;15.942;2023-08-20T04:58:56;18.90;99.90
24412;DHT22;12544;46.760;15.942;2023-08-20T05:01:21;19.00;99.90
24412;DHT22;12544;46.760;15.942;2023-08-20T05:03:47;19.10;99.90
24412;DHT22;12544;46.760;15.942;2023-08-20T05:06:13;19.20;99.90
24412;DHT22;12544;46.760;15.942;2023-08-20T05:08:38;19.30;99.90
24412;DHT22;12544;46.760;15.942;2023-08-20T05:14:26;19.30;99.90
24412;DHT22;12544;46.760;15.942;2023-08-20T05:16:51;19.30;99.90
24412;DHT22;12544;46.760;15.942;2023-08-20T05:19:17;19.30;99.90
24412;DHT22;12544;46.760;15.942;2023-08-20T05:21:42;19.40;99.90
24412;DHT22;12544;46.760;15.942;2023-08-20T05:24:08;19.40;99.90
24412;DHT22;12544;46.760;15.942;2023-08-20T05:26:34;19.50;99.90
24412;DHT22;12544;46.760;15.942;2023-08-20T05:29:00;19.60;99.90
24412;DHT22;12544;46.760;15.942;2023-08-20T05:31:26;19.60;99.90
24412;DHT22;12544;46.760;15.942;2023-08-20T05:33:51;19.70;99.90
24412;DHT22;12544;46.760;15.942;2023-08-20T05:36:17;19.70;99.90
24412;DHT22;12544;46.760;15.942;2023-08-20T05:42:04;19.80;99.90
24412;DHT22;12544;46.760;15.942;2023-08-20T05:44:30;19.90;99.90
24412;DHT22;12544;46.760;15.942;2023-08-20T05:46:56;19.90;99.90
24412;DHT22;12544;46.760;15.942;2023-08-20T05:49:21;20.00;99.90
24412;DHT22;12544;46.760;15.942;2023-08-20T05:51:47;20.10;99.90
24412;DHT22;12544;46.760;15.942;2023-08-20T05:54:12;20.20;99.90
24412;DHT22;12544;46.760;15.942;2023-08-20T05:56:38;20.30;99.90
24412;DHT22;12544;46.760;15.942;2023-08-20T06:02:25;20.50;99.90
24412;DHT22;12544;46.760;15.942;2023-08-20T06:04:51;20.70;99.90
24412;DHT22;12544;46.760;15.942;2023-08-20T06:07:16;20.80;99.90
24412;DHT22;12544;46.760;15.942;2023-08-20T06:09:42;21.00;99.90
24412;DHT22;12544;46.760;15.942;2023-08-20T06:12:08;21.10;99.90
24412;DHT22;12544;46.760;15.942;2023-08-20T06:14:33;21.20;99.90
24412;DHT22;12544;46.760;15.942;2023-08-20T06:16:59;21.40;99.90
24412;DHT22;12544;46.760;15.942;2023-08-20T06:19:25;21.50;99.90
24412;DHT22;12544;46.760;15.942;2023-08-20T06:21:51;21.60;99.90
24412;DHT22;12544;46.760;15.942;2023-08-20T06:24:16;21.70;99.90
24412;DHT22;12544;46.760;15.942;2023-08-20T06:26:42;21.90;99.90
24412;DHT22;12544;46.760;15.942;2023-08-20T06:29:09;22.00;99.90
24412;DHT22;12544;46.760;15.942;2023-08-20T06:31:35;22.20;99.90
24412;DHT22;12544;46.760;15.942;2023-08-20T06:34:00;22.30;99.90
24412;DHT22;12544;46.760;15.942;2023-08-20T06:36:26;22.40;99.90
24412;DHT22;12544;46.760;15.942;2023-08-20T06:38:51;22.60;99.90
24412;DHT22;12544;46.760;15.942;2023-08-20T06:41:17;22.70;99.90
24412;DHT22;12544;46.760;15.942;2023-08-20T06:43:43;22.80;99.90
24412;DHT22;12544;46.760;15.942;2023-08-20T06:46:09;22.90;99.90
24412;DHT22;12544;46.760;15.942;2023-08-20T06:48:35;23.00;99.90
24412;DHT22;12544;46.760;15.942;2023-08-20T06:51:20;23.20;99.90
24412;DHT22;12544;46.760;15.942;2023-08-20T06:53:47;23.30;99.90
24412;DHT22;12544;46.760;15.942;2023-08-20T06:56:13;23.50;99.90
24412;DHT22;12544;46.760;15.942;2023-08-20T06:58:39;23.60;99.90
24412;DHT22;12544;46.760;15.942;2023-08-20T07:01:05;23.70;99.90
24412;DHT22;12544;46.760;15.942;2023-08-20T07:03:42;23.80;99.90
24412;DHT22;12544;46.760;15.942;2023-08-20T07:06:09;23.90;99.90
24412;DHT22;12544;46.760;15.942;2023-08-20T07:08:35;24.10;99.90
24412;DHT22;12544;46.760;15.942;2023-08-20T07:11:02;24.20;99.90
24412;DHT22;12544;46.760;15.942;2023-08-20T07:13:28;24.30;99.90
24412;DHT22;12544;46.760;15.942;2023-08-20T07:15:54;24.40;99.90
24412;DHT22;12544;46.760;15.942;2023-08-20T07:21:42;24.50;99.90
24412;DHT22;12544;46.760;15.942;2023-08-20T07:24:07;24.60;99.90
24412;DHT22;12544;46.760;15.942;2023-08-20T07:26:33;24.80;99.90
24412;DHT22;12544;46.760;15.942;2023-08-20T07:28:59;24.80;99.90
24412;DHT22;12544;46.760;15.942;2023-08-20T07:31:29;25.00;99.90
24412;DHT22;12544;46.760;15.942;2023-08-20T07:33:57;25.10;99.90
24412;DHT22;12544;46.760;15.942;2023-08-20T07:36:24;25.20;99.90
24412;DHT22;12544;46.760;15.942;2023-08-20T07:38:51;25.30;99.90
24412;DHT22;12544;46.760;15.942;2023-08-20T07:41:17;25.40;99.90
24412;DHT22;12544;46.760;15.942;2023-08-20T07:47:04;25.60;99.90
24412;DHT22;12544;46.760;15.942;2023-08-20T07:49:30;25.70;99.90
24412;DHT22;12544;46.760;15.942;2023-08-20T07:51:55;25.70;99.90
24412;DHT22;12544;46.760;15.942;2023-08-20T07:54:21;25.80;99.90
24412;DHT22;12544;46.760;15.942;2023-08-20T07:56:47;25.80;99.90
24412;DHT22;12544;46.760;15.942;2023-08-20T07:59:12;25.90;99.90
24412;DHT22;12544;46.760;15.942;2023-08-20T08:01:38;26.10;99.90
24412;DHT22;12544;46.760;15.942;2023-08-20T08:04:04;26.20;99.90
24412;DHT22;12544;46.760;15.942;2023-08-20T08:06:29;26.30;99.90
24412;DHT22;12544;46.760;15.942;2023-08-20T08:08:55;26.40;99.90
24412;DHT22;12544;46.760;15.942;2023-08-20T08:11:20;26.60;99.90
24412;DHT22;12544;46.760;15.942;2023-08-20T08:13:46;26.70;99.90
24412;DHT22;12544;46.760;15.942;2023-08-20T08:16:11;26.80;99.90
24412;DHT22;12544;46.760;15.942;2023-08-20T08:18:37;27.00;99.90
24412;DHT22;12544;46.760;15.942;2023-08-20T08:21:03;27.20;99.90
24412;DHT22;12544;46.760;15.942;2023-08-20T08:23:28;27.40;99.90
24412;DHT22;12544;46.760;15.942;2023-08-20T08:25:54;27.40;99.90
24412;DHT22;12544;46.760;15.942;2023-08-20T08:28:20;27.50;99.90
24412;DHT22;12544;46.760;15.942;2023-08-20T08:30:45;27.50;99.90
24412;DHT22;12544;46.760;15.942;2023-08-20T08:33:11;27.70;99.90
24412;DHT22;12544;46.760;15.942;2023-08-20T08:35:36;27.70;99.90
24412;DHT22;12544;46.760;15.942;2023-08-20T08:38:02;27.80;99.90
24412;DHT22;12544;46.760;15.942;2023-08-20T08:40:29;27.80;99.90
24412;DHT22;12544;46.760;15.942;2023-08-20T08:42:56;28.00;99.90
24412;DHT22;12544;46.760;15.942;2023-08-20T08:48:45;28.20;99.90
24412;DHT22;12544;46.760;15.942;2023-08-20T08:51:14;28.40;99.90
24412;DHT22;12544;46.760;15.942;2023-08-20T08:53:42;28.60;99.90
24412;DHT22;12544;46.760;15.942;2023-08-20T08:56:10;28.40;99.90
24412;DHT22;12544;46.760;15.942;2023-08-20T08:58:36;28.40;99.90
24412;DHT22;12544;46.760;15.942;2023-08-20T09:01:01;28.30;99.90
24412;DHT22;12544;46.760;15.942;2023-08-20T09:03:27;28.40;99.90
24412;DHT22;12544;46.760;15.942;2023-08-20T09:05:59;28.60;99.90
24412;DHT22;12544;46.760;15.942;2023-08-20T09:08:30;28.50;99.90
24412;DHT22;12544;46.760;15.942;2023-08-20T09:10:57;28.70;99.90
24412;DHT22;12544;46.760;15.942;2023-08-20T09:15:54;29.00;99.90
24412;DHT22;12544;46.760;15.942;2023-08-20T09:18:20;29.10;99.90
24412;DHT22;12544;46.760;15.942;2023-08-20T09:20:48;29.40;99.90
24412;DHT22;12544;46.760;15.942;2023-08-20T09:23:15;29.60;99.90
24412;DHT22;12544;46.760;15.942;2023-08-20T09:25:42;29.70;99.90
24412;DHT22;12544;46.760;15.942;2023-08-20T09:31:38;29.80;99.90
24412;DHT22;12544;46.760;15.942;2023-08-20T09:34:04;29.80;99.90
24412;DHT22;12544;46.760;15.942;2023-08-20T09:36:34;29.70;99.90
24412;DHT22;12544;46.760;15.942;2023-08-20T09:39:01;29.50;99.90
24412;DHT22;12544;46.760;15.942;2023-08-20T09:41:28;29.50;99.90
24412;DHT22;12544;46.760;15.942;2023-08-20T09:43:58;29.70;99.90
24412;DHT22;12544;46.760;15.942;2023-08-20T09:46:26;29.90;99.90
24412;DHT22;12544;46.760;15.942;2023-08-20T09:48:55;29.90;99.90
24412;DHT22;12544;46.760;15.942;2023-08-20T09:51:26;29.90;99.90
24412;DHT22;12544;46.760;15.942;2023-08-20T09:54:19;30.00;99.90
24412;DHT22;12544;46.760;15.942;2023-08-20T09:56:51;30.10;99.90
24412;DHT22;12544;46.760;15.942;2023-08-20T09:59:19;30.30;99.90
24412;DHT22;12544;46.760;15.942;2023-08-20T10:01:46;30.60;99.90
24412;DHT22;12544;46.760;15.942;2023-08-20T10:04:13;30.80;99.90
24412;DHT22;12544;46.760;15.942;2023-08-20T10:10:06;31.20;99.90
24412;DHT22;12544;46.760;15.942;2023-08-20T10:12:33;31.50;99.90
24412;DHT22;12544;46.760;15.942;2023-08-20T10:14:59;31.60;99.90
24412;DHT22;12544;46.760;15.942;2023-08-20T10:17:29;31.80;99.40
24412;DHT22;12544;46.760;15.942;2023-08-20T10:19:54;32.00;98.70
24412;DHT22;12544;46.760;15.942;2023-08-20T10:22:22;31.90;97.70
24412;DHT22;12544;46.760;15.942;2023-08-20T10:24:52;31.80;99.30
24412;DHT22;12544;46.760;15.942;2023-08-20T10:27:30;31.90;98.50
24412;DHT22;12544;46.760;15.942;2023-08-20T10:29:58;32.10;98.80
24412;DHT22;12544;46.760;15.942;2023-08-20T10:32:43;31.90;98.60
24412;DHT22;12544;46.760;15.942;2023-08-20T10:35:09;32.00;97.90
24412;DHT22;12544;46.760;15.942;2023-08-20T10:37:35;32.30;96.20
24412;DHT22;12544;46.760;15.942;2023-08-20T10:40:02;32.40;97.80
24412;DHT22;12544;46.760;15.942;2023-08-20T10:42:30;32.50;97.00
24412;DHT22;12544;46.760;15.942;2023-08-20T10:45:02;32.70;96.60
24412;DHT22;12544;46.760;15.942;2023-08-20T10:47:41;32.70;98.10
24412;DHT22;12544;46.760;15.942;2023-08-20T10:50:08;32.80;97.30
24412;DHT22;12544;46.760;15.942;2023-08-20T10:52:40;32.80;96.90
24412;DHT22;12544;46.760;15.942;2023-08-20T10:58:30;32.50;97.40
24412;DHT22;12544;46.760;15.942;2023-08-20T11:01:21;32.70;96.60
24412;DHT22;12544;46.760;15.942;2023-08-20T11:03:48;32.70;96.00
24412;DHT22;12544;46.760;15.942;2023-08-20T11:06:14;32.80;95.90
24412;DHT22;12544;46.760;15.942;2023-08-20T11:08:40;32.60;95.10
24412;DHT22;12544;46.760;15.942;2023-08-20T11:11:07;32.40;96.00
24412;DHT22;12544;46.760;15.942;2023-08-20T11:13:34;32.50;96.40
24412;DHT22;12544;46.760;15.942;2023-08-20T11:16:02;32.60;95.00
24412;DHT22;12544;46.760;15.942;2023-08-20T11:18:28;32.70;96.20
24412;DHT22;12544;46.760;15.942;2023-08-20T11:20:54;33.00;95.90
24412;DHT22;12544;46.760;15.942;2023-08-20T11:23:21;33.30;94.90
24412;DHT22;12544;46.760;15.942;2023-08-20T11:25:47;33.50;95.00
24412;DHT22;12544;46.760;15.942;2023-08-20T11:28:13;33.70;94.50
24412;DHT22;12544;46.760;15.942;2023-08-20T11:30:39;33.80;95.30
24412;DHT22;12544;46.760;15.942;2023-08-20T11:33:04;33.90;94.00
24412;DHT22;12544;46.760;15.942;2023-08-20T11:35:31;33.80;93.70
24412;DHT22;12544;46.760;15.942;2023-08-20T11:37:58;33.90;94.50
24412;DHT22;12544;46.760;15.942;2023-08-20T11:40:23;34.00;94.50
24412;DHT22;12544;46.760;15.942;2023-08-20T11:42:49;34.00;92.70
24412;DHT22;12544;46.760;15.942;2023-08-20T11:45:15;33.70;92.90
24412;DHT22;12544;46.760;15.942;2023-08-20T11:47:42;33.70;93.40
24412;DHT22;12544;46.760;15.942;2023-08-20T11:50:08;33.90;93.20
24412;DHT22;12544;46.760;15.942;2023-08-20T11:52:36;34.00;93.20
24412;DHT22;12544;46.760;15.942;2023-08-20T11:55:02;34.00;92.70
24412;DHT22;12544;46.760;15.942;2023-08-20T11:57:29;34.00;91.80
24412;DHT22;12544;46.760;15.942;2023-08-20T11:59:59;34.10;92.00
24412;DHT22;12544;46.760;15.942;2023-08-20T12:02:26;34.30;90.40
24412;DHT22;12544;46.760;15.942;2023-08-20T12:04:54;34.50;88.30
24412;DHT22;12544;46.760;15.942;2023-08-20T12:07:20;34.80;87.80
24412;DHT22;12544;46.760;15.942;2023-08-20T12:09:49;34.90;87.40
24412;DHT22;12544;46.760;15.942;2023-08-20T12:12:19;34.90;86.60
24412;DHT22;12544;46.760;15.942;2023-08-20T12:14:45;34.80;88.40
24412;DHT22;12544;46.760;15.942;2023-08-20T12:17:11;34.90;87.60
24412;DHT22;12544;46.760;15.942;2023-08-20T12:19:37;34.70;89.20
24412;DHT22;12544;46.760;15.942;2023-08-20T12:22:03;34.70;89.70
24412;DHT22;12544;46.760;15.942;2023-08-20T12:24:29;34.60;89.00
24412;DHT22;12544;46.760;15.942;2023-08-20T12:26:55;34.70;85.70
24412;DHT22;12544;46.760;15.942;2023-08-20T12:29:20;34.60;87.20
24412;DHT22;12544;46.760;15.942;2023-08-20T12:31:46;34.50;88.20
24412;DHT22;12544;46.760;15.942;2023-08-20T12:34:11;34.70;89.90
24412;DHT22;12544;46.760;15.942;2023-08-20T12:36:37;34.80;89.60
24412;DHT22;12544;46.760;15.942;2023-08-20T12:39:03;34.90;88.80
24412;DHT22;12544;46.760;15.942;2023-08-20T12:44:54;34.90;86.80
24412;DHT22;12544;46.760;15.942;2023-08-20T12:47:19;34.90;88.30
24412;DHT22;12544;46.760;15.942;2023-08-20T12:49:45;34.50;88.60
24412;DHT22;12544;46.760;15.942;2023-08-20T12:52:10;34.30;87.50
24412;DHT22;12544;46.760;15.942;2023-08-20T12:54:36;34.20;87.60
24412;DHT22;12544;46.760;15.942;2023-08-20T12:57:02;34.20;88.30
24412;DHT22;12544;46.760;15.942;2023-08-20T12:59:27;34.30;88.00
24412;DHT22;12544;46.760;15.942;2023-08-20T13:01:53;34.70;88.90
24412;DHT22;12544;46.760;15.942;2023-08-20T13:04:19;34.90;84.70
24412;DHT22;12544;46.760;15.942;2023-08-20T13:06:45;34.80;87.70
24412;DHT22;12544;46.760;15.942;2023-08-20T13:09:11;34.60;84.80
24412;DHT22;12544;46.760;15.942;2023-08-20T13:11:38;34.80;86.40
24412;DHT22;12544;46.760;15.942;2023-08-20T13:14:05;35.10;84.60
24412;DHT22;12544;46.760;15.942;2023-08-20T13:19:53;35.80;83.50
24412;DHT22;12544;46.760;15.942;2023-08-20T13:22:18;35.90;80.60
24412;DHT22;12544;46.760;15.942;2023-08-20T13:24:44;35.80;80.80
24412;DHT22;12544;46.760;15.942;2023-08-20T13:27:09;35.90;82.40
24412;DHT22;12544;46.760;15.942;2023-08-20T13:29:35;35.40;83.60
24412;DHT22;12544;46.760;15.942;2023-08-20T13:32:00;34.70;83.30
24412;DHT22;12544;46.760;15.942;2023-08-20T13:34:26;34.70;84.10
24412;DHT22;12544;46.760;15.942;2023-08-20T13:36:52;34.80;85.10
24412;DHT22;12544;46.760;15.942;2023-08-20T13:39:17;35.00;85.50
24412;DHT22;12544;46.760;15.942;2023-08-20T13:41:44;35.10;83.50
24412;DHT22;12544;46.760;15.942;2023-08-20T13:44:09;35.20;85.90
24412;DHT22;12544;46.760;15.942;2023-08-20T13:46:35;35.40;84.20
24412;DHT22;12544;46.760;15.942;2023-08-20T13:49:01;35.40;83.70
24412;DHT22;12544;46.760;15.942;2023-08-20T13:51:28;35.50;84.10
24412;DHT22;12544;46.760;15.942;2023-08-20T13:53:54;35.70;84.60
24412;DHT22;12544;46.760;15.942;2023-08-20T13:56:19;35.90;82.70
24412;DHT22;12544;46.760;15.942;2023-08-20T13:58:45;36.00;82.60
24412;DHT22;12544;46.760;15.942;2023-08-20T14:01:11;35.90;83.00
24412;DHT22;12544;46.760;15.942;2023-08-20T14:03:38;36.00;83.40
24412;DHT22;12544;46.760;15.942;2023-08-20T14:06:04;36.00;82.30
24412;DHT22;12544;46.760;15.942;2023-08-20T14:08:30;36.10;81.00
24412;DHT22;12544;46.760;15.942;2023-08-20T14:10:55;36.10;82.20
24412;DHT22;12544;46.760;15.942;2023-08-20T14:16:43;36.00;80.10
24412;DHT22;12544;46.760;15.942;2023-08-20T14:19:08;35.90;81.60
24412;DHT22;12544;46.760;15.942;2023-08-20T14:21:34;35.90;81.60
24412;DHT22;12544;46.760;15.942;2023-08-20T14:24:00;35.80;81.60
24412;DHT22;12544;46.760;15.942;2023-08-20T14:26:25;35.80;80.50
24412;DHT22;12544;46.760;15.942;2023-08-20T14:28:51;35.70;82.00
24412;DHT22;12544;46.760;15.942;2023-08-20T14:31:16;35.80;80.00
24412;DHT22;12544;46.760;15.942;2023-08-20T14:33:44;35.60;81.30
24412;DHT22;12544;46.760;15.942;2023-08-20T14:36:10;35.60;81.90
24412;DHT22;12544;46.760;15.942;2023-08-20T14:38:35;35.60;81.60
24412;DHT22;12544;46.760;15.942;2023-08-20T14:44:23;35.70;85.90
24412;DHT22;12544;46.760;15.942;2023-08-20T14:46:48;35.80;83.60
24412;DHT22;12544;46.760;15.942;2023-08-20T14:49:16;36.00;81.10
24412;DHT22;12544;46.760;15.942;2023-08-20T14:51:43;36.00;82.10
24412;DHT22;12544;46.760;15.942;2023-08-20T14:54:09;36.10;80.20
24412;DHT22;12544;46.760;15.942;2023-08-20T14:56:35;36.00;79.00
24412;DHT22;12544;46.760;15.942;2023-08-20T14:59:00;36.00;80.70
24412;DHT22;12544;46.760;15.942;2023-08-20T15:01:26;35.60;79.30
24412;DHT22;12544;46.760;15.942;2023-08-20T15:03:51;35.70;80.60
24412;DHT22;12544;46.760;15.942;2023-08-20T15:06:17;35.70;81.90
24412;DHT22;12544;46.760;15.942;2023-08-20T15:08:47;35.80;82.80
24412;DHT22;12544;46.760;15.942;2023-08-20T15:11:12;35.90;80.80
24412;DHT22;12544;46.760;15.942;2023-08-20T15:13:38;35.90;81.70
24412;DHT22;12544;46.760;15.942;2023-08-20T15:16:03;36.00;81.50
24412;DHT22;12544;46.760;15.942;2023-08-20T15:18:29;36.10;79.70
24412;DHT22;12544;46.760;15.942;2023-08-20T15:20:56;36.00;79.10
24412;DHT22;12544;46.760;15.942;2023-08-20T15:23:26;35.90;79.20
24412;DHT22;12544;46.760;15.942;2023-08-20T15:25:53;35.80;79.60
24412;DHT22;12544;46.760;15.942;2023-08-20T15:28:20;35.80;79.50
24412;DHT22;12544;46.760;15.942;2023-08-20T15:30:45;35.90;79.60
24412;DHT22;12544;46.760;15.942;2023-08-20T15:33:11;35.90;78.50
24412;DHT22;12544;46.760;15.942;2023-08-20T15:38:59;35.50;79.00
24412;DHT22;12544;46.760;15.942;2023-08-20T15:41:24;35.40;79.10
24412;DHT22;12544;46.760;15.942;2023-08-20T15:43:50;35.30;79.00
24412;DHT22;12544;46.760;15.942;2023-08-20T15:46:15;35.30;79.40
24412;DHT22;12544;46.760;15.942;2023-08-20T15:48:41;35.20;81.80
24412;DHT22;12544;46.760;15.942;2023-08-20T15:54:29;34.60;81.90
24412;DHT22;12544;46.760;15.942;2023-08-20T15:56:54;34.40;81.90
24412;DHT22;12544;46.760;15.942;2023-08-20T15:59:20;34.20;83.50
24412;DHT22;12544;46.760;15.942;2023-08-20T16:01:46;33.90;83.20
24412;DHT22;12544;46.760;15.942;2023-08-20T16:04:13;33.80;82.80
24412;DHT22;12544;46.760;15.942;2023-08-20T16:06:38;33.80;83.20
24412;DHT22;12544;46.760;15.942;2023-08-20T16:09:04;33.80;84.30
24412;DHT22;12544;46.760;15.942;2023-08-20T16:11:30;33.50;85.40
24412;DHT22;12544;46.760;15.942;2023-08-20T16:13:56;33.10;89.10
24412;DHT22;12544;46.760;15.942;2023-08-20T16:16:22;32.70;89.50
24412;DHT22;12544;46.760;15.942;2023-08-20T16:18:48;32.40;89.10
24412;DHT22;12544;46.760;15.942;2023-08-20T16:21:13;32.00;90.50
24412;DHT22;12544;46.760;15.942;2023-08-20T16:23:39;31.80;90.50
24412;DHT22;12544;46.760;15.942;2023-08-20T16:26:05;31.70;89.10
24412;DHT22;12544;46.760;15.942;2023-08-20T16:28:31;31.60;89.90
24412;DHT22;12544;46.760;15.942;2023-08-20T16:30:57;31.50;91.30
24412;DHT22;12544;46.760;15.942;2023-08-20T16:33:23;31.40;91.00
24412;DHT22;12544;46.760;15.942;2023-08-20T16:35:50;31.20;92.70
24412;DHT22;12544;46.760;15.942;2023-08-20T16:38:15;31.10;92.70
24412;DHT22;12544;46.760;15.942;2023-08-20T16:40:41;31.00;92.20